createdAt,value
2023-08-15T00:01:44.858Z,16.30
2023-08-15T00:04:11.415Z,16.00
2023-08-15T00:06:37.895Z,14.40
2023-08-15T00:09:04.552Z,14.60
2023-08-15T00:11:31.110Z,15.10
2023-08-15T00:13:57.925Z,15.60
2023-08-15T00:16:24.920Z,15.50
2023-08-15T00:18:51.539Z,15.80
2023-08-15T00:21:18.282Z,14.20
2023-08-15T00:23:44.724Z,14.70
2023-08-15T00:26:11.168Z,13.00
2023-08-15T00:28:37.664Z,14.00
2023-08-15T00:31:04.069Z,12.90
2023-08-15T00:33:30.530Z,12.30
2023-08-15T00:35:57.028Z,13.20
2023-08-15T00:38:23.548Z,13.20
2023-08-15T00:40:50.188Z,14.50
2023-08-15T00:43:18.563Z,12.70
2023-08-15T00:45:45.684Z,13.90
2023-08-15T00:48:12.831Z,12.60
2023-08-15T00:50:45.798Z,13.20
2023-08-15T00:53:12.865Z,12.00
2023-08-15T00:55:39.533Z,13.90
2023-08-15T00:58:06.524Z,13.30
2023-08-15T01:00:33.307Z,11.20
2023-08-15T01:03:00.233Z,12.00
2023-08-15T01:05:29.590Z,10.00
2023-08-15T01:07:56.715Z,11.60
2023-08-15T01:10:23.659Z,11.50
2023-08-15T01:13:32.225Z,10.50
2023-08-15T01:16:03.279Z,14.30
2023-08-15T01:18:39.909Z,12.60
2023-08-15T01:21:07.221Z,13.00
2023-08-15T01:23:53.571Z,13.20
2023-08-15T01:26:20.057Z,13.00
2023-08-15T01:28:46.543Z,12.00
2023-08-15T01:31:30.565Z,11.70
2023-08-15T01:34:11.024Z,11.70
2023-08-15T01:36:45.495Z,10.10
2023-08-15T01:39:18.522Z,12.50
2023-08-15T01:41:46.998Z,11.60
2023-08-15T01:44:15.240Z,10.70
2023-08-15T01:46:41.792Z,10.90
2023-08-15T01:49:08.260Z,11.30
2023-08-15T01:51:34.613Z,11.10
2023-08-15T01:54:01.060Z,12.10
2023-08-15T01:56:27.587Z,12.50
2023-08-15T01:58:54.097Z,11.90
2023-08-15T02:01:20.565Z,10.80
2023-08-15T02:03:47.083Z,11.90
2023-08-15T02:06:13.569Z,11.40
2023-08-15T02:08:40.065Z,13.70
2023-08-15T02:11:06.554Z,11.10
2023-08-15T02:13:34.183Z,14.60
2023-08-15T02:16:01.529Z,12.20
2023-08-15T02:18:30.475Z,9.40
2023-08-15T02:20:56.937Z,11.40
2023-08-15T02:23:23.578Z,11.30
2023-08-15T02:25:50.067Z,10.80
2023-08-15T02:28:16.601Z,10.50
2023-08-15T02:30:43.351Z,10.00
2023-08-15T02:33:09.775Z,9.80
2023-08-15T02:35:41.129Z,10.30
2023-08-15T02:38:07.776Z,10.50
2023-08-15T02:40:34.412Z,10.30
2023-08-15T02:43:00.882Z,10.20
2023-08-15T02:45:27.520Z,11.00
2023-08-15T02:47:54.134Z,10.20
2023-08-15T02:50:20.592Z,10.30
2023-08-15T02:52:47.028Z,9.50
2023-08-15T02:55:13.467Z,11.10
2023-08-15T02:57:39.895Z,9.40
2023-08-15T03:00:08.487Z,11.50
2023-08-15T03:02:35.096Z,9.50
2023-08-15T03:05:01.972Z,11.00
2023-08-15T03:07:28.442Z,11.60
2023-08-15T03:09:54.941Z,11.30
2023-08-15T03:12:21.366Z,11.30
2023-08-15T03:14:47.948Z,10.00
2023-08-15T03:17:14.609Z,11.10
2023-08-15T03:19:41.351Z,9.90
2023-08-15T03:22:07.978Z,11.00
2023-08-15T03:24:34.533Z,10.10
2023-08-15T03:27:03.936Z,12.90
2023-08-15T03:29:31.013Z,8.70
2023-08-15T03:31:59.501Z,12.10
2023-08-15T03:34:26.048Z,11.70
2023-08-15T03:36:52.848Z,10.50
2023-08-15T03:39:19.263Z,10.60
2023-08-15T03:41:45.829Z,9.40
2023-08-15T03:44:12.395Z,10.80
2023-08-15T03:46:41.384Z,11.60
2023-08-15T03:49:08.359Z,9.70
2023-08-15T03:54:05.456Z,9.90
2023-08-15T03:56:31.970Z,11.60
2023-08-15T03:58:58.364Z,11.30
2023-08-15T04:01:24.804Z,11.20
2023-08-15T04:03:52.587Z,9.20
2023-08-15T04:06:19.049Z,11.30
2023-08-15T04:08:46.001Z,11.80
2023-08-15T04:11:12.478Z,10.40
2023-08-15T04:13:39.397Z,9.60
2023-08-15T04:16:05.903Z,9.80
2023-08-15T04:18:35.036Z,10.80
2023-08-15T04:21:01.691Z,11.90
2023-08-15T04:23:28.149Z,12.10
2023-08-15T04:25:54.693Z,8.70
2023-08-15T04:28:22.066Z,9.50
2023-08-15T04:30:48.536Z,11.50
2023-08-15T04:33:15.073Z,10.30
2023-08-15T04:35:41.550Z,10.70
2023-08-15T04:38:10.840Z,11.30
2023-08-15T04:40:40.884Z,11.60
2023-08-15T04:43:08.183Z,11.00
2023-08-15T04:45:40.957Z,10.70
2023-08-15T04:48:09.159Z,11.50
2023-08-15T04:50:35.551Z,11.30
2023-08-15T04:53:02.085Z,12.80
2023-08-15T04:55:28.529Z,11.60
2023-08-15T04:57:55.008Z,12.10
2023-08-15T05:00:21.646Z,12.80
2023-08-15T05:02:48.271Z,11.50
2023-08-15T05:05:15.620Z,10.60
2023-08-15T05:07:42.228Z,11.30
2023-08-15T05:10:09.006Z,11.40
2023-08-15T05:12:35.641Z,11.20
2023-08-15T05:15:02.908Z,10.10
2023-08-15T05:17:31.982Z,12.80
2023-08-15T05:19:59.022Z,11.00
2023-08-15T05:22:25.420Z,12.20
2023-08-15T05:24:52.150Z,8.70
2023-08-15T05:27:18.712Z,9.50
2023-08-15T05:29:45.355Z,9.50
2023-08-15T05:32:11.810Z,9.80
2023-08-15T05:34:38.362Z,9.80
2023-08-15T05:37:04.884Z,11.10
2023-08-15T05:39:31.320Z,11.70
2023-08-15T05:41:57.822Z,9.50
2023-08-15T05:44:26.074Z,9.70
2023-08-15T05:46:52.593Z,9.50
2023-08-15T05:49:19.133Z,9.50
2023-08-15T05:51:45.695Z,9.40
2023-08-15T05:54:12.114Z,11.70
2023-08-15T05:56:39.397Z,8.10
2023-08-15T05:59:05.837Z,8.40
2023-08-15T06:01:32.248Z,9.70
2023-08-15T06:03:58.879Z,11.50
2023-08-15T06:06:25.425Z,10.50
2023-08-15T06:08:51.870Z,11.10
2023-08-15T06:11:18.288Z,9.70
2023-08-15T06:13:44.743Z,10.30
2023-08-15T06:16:13.438Z,9.80
2023-08-15T06:18:40.522Z,10.30
2023-08-15T06:21:06.926Z,9.70
2023-08-15T06:23:33.430Z,13.70
2023-08-15T06:25:59.877Z,11.60
2023-08-15T06:28:26.515Z,9.50
2023-08-15T06:30:52.936Z,12.00
2023-08-15T06:33:19.629Z,9.10
2023-08-15T06:35:46.131Z,10.80
2023-08-15T06:38:12.652Z,13.40
2023-08-15T06:40:40.346Z,10.60
2023-08-15T06:43:06.807Z,11.50
2023-08-15T06:45:37.087Z,10.10
2023-08-15T06:48:05.998Z,11.00
2023-08-15T06:50:34.088Z,12.00
2023-08-15T06:53:00.612Z,11.80
2023-08-15T06:55:27.045Z,10.40
2023-08-15T06:57:54.536Z,10.20
2023-08-15T07:00:21.366Z,10.90
2023-08-15T07:02:47.972Z,11.60
2023-08-15T07:05:15.230Z,9.50
2023-08-15T07:07:41.939Z,12.00
2023-08-15T07:10:10.746Z,12.50
2023-08-15T07:12:37.342Z,9.90
2023-08-15T07:15:04.698Z,12.30
2023-08-15T07:17:31.381Z,12.40
2023-08-15T07:19:58.332Z,13.00
2023-08-15T07:22:24.788Z,12.90
2023-08-15T07:24:51.291Z,11.50
2023-08-15T07:27:18.263Z,12.10
2023-08-15T07:29:45.305Z,11.80
2023-08-15T07:32:13.601Z,11.20
2023-08-15T07:34:41.326Z,11.40
2023-08-15T07:37:07.947Z,12.10
2023-08-15T07:39:34.627Z,10.70
2023-08-15T07:42:01.116Z,12.80
2023-08-15T07:44:28.109Z,13.60
2023-08-15T07:46:54.676Z,10.90
2023-08-15T07:49:21.302Z,10.80
2023-08-15T07:51:47.890Z,12.80
2023-08-15T07:54:14.396Z,11.00
2023-08-15T07:56:40.992Z,10.80
2023-08-15T07:59:07.491Z,11.50
2023-08-15T08:01:34.184Z,13.30
2023-08-15T08:04:01.321Z,11.80
2023-08-15T08:06:39.842Z,10.00
2023-08-15T08:09:08.942Z,9.60
2023-08-15T08:11:35.432Z,11.40
2023-08-15T08:14:01.897Z,12.30
2023-08-15T08:16:29.269Z,11.00
2023-08-15T08:18:56.104Z,13.70
2023-08-15T08:21:23.440Z,12.90
2023-08-15T08:23:49.984Z,11.90
2023-08-15T08:26:16.443Z,11.70
2023-08-15T08:28:42.884Z,11.20
2023-08-15T08:31:09.556Z,13.30
2023-08-15T08:33:36.096Z,14.00
2023-08-15T08:36:02.775Z,10.90
2023-08-15T08:38:29.240Z,12.60
2023-08-15T08:40:56.177Z,13.60
2023-08-15T08:43:23.298Z,13.90
2023-08-15T08:45:55.054Z,13.40
2023-08-15T08:48:22.901Z,12.40
2023-08-15T08:50:49.916Z,11.90
2023-08-15T08:53:16.703Z,11.30
2023-08-15T08:55:47.862Z,13.20
2023-08-15T08:58:15.079Z,12.80
2023-08-15T09:00:42.141Z,13.90
2023-08-15T09:03:10.521Z,14.50
2023-08-15T09:05:38.227Z,20.20
2023-08-15T09:08:06.885Z,12.90
2023-08-15T09:10:33.546Z,12.40
2023-08-15T09:13:01.346Z,11.70
2023-08-15T09:15:29.377Z,12.50
2023-08-15T09:18:05.223Z,10.90
2023-08-15T09:20:31.986Z,12.70
2023-08-15T09:23:00.874Z,12.30
2023-08-15T09:25:28.745Z,11.40
2023-08-15T09:27:55.268Z,13.00
2023-08-15T09:30:22.860Z,11.70
2023-08-15T09:32:49.626Z,12.10
2023-08-15T09:35:19.153Z,12.20
2023-08-15T09:37:50.774Z,9.90
2023-08-15T09:40:26.215Z,10.10
2023-08-15T09:42:53.651Z,10.10
2023-08-15T09:45:20.893Z,8.20
2023-08-15T09:47:47.627Z,9.20
2023-08-15T09:50:18.685Z,11.20
2023-08-15T09:52:50.667Z,11.20
2023-08-15T09:55:19.488Z,9.20
2023-08-15T09:57:46.600Z,9.80
2023-08-15T10:00:17.842Z,8.30
2023-08-15T10:03:20.405Z,8.30
2023-08-15T10:05:55.036Z,7.50
2023-08-15T10:08:23.712Z,9.10
2023-08-15T10:10:52.549Z,8.80
2023-08-15T10:13:34.089Z,6.90
2023-08-15T10:16:04.548Z,9.10
2023-08-15T10:18:34.171Z,8.20
2023-08-15T10:21:01.985Z,7.60
2023-08-15T10:23:35.101Z,8.30
2023-08-15T10:26:02.663Z,10.00
2023-08-15T10:28:33.669Z,8.50
2023-08-15T10:31:00.719Z,9.60
2023-08-15T10:33:32.235Z,8.60
2023-08-15T10:35:58.662Z,9.30
2023-08-15T10:38:31.582Z,10.70
2023-08-15T10:41:04.244Z,7.80
2023-08-15T10:43:34.571Z,9.00
2023-08-15T10:46:07.538Z,8.70
2023-08-15T10:49:00.187Z,7.60
2023-08-15T10:51:32.438Z,6.90
2023-08-15T10:54:08.025Z,7.40
2023-08-15T10:56:41.352Z,7.80
2023-08-15T10:59:14.231Z,8.00
2023-08-15T11:01:43.938Z,8.80
2023-08-15T11:04:15.897Z,9.80
2023-08-15T11:06:48.070Z,7.50
2023-08-15T11:09:17.847Z,7.10
2023-08-15T11:11:45.795Z,8.90
2023-08-15T11:14:18.104Z,11.30
2023-08-15T11:16:49.741Z,7.80
2023-08-15T11:19:20.294Z,8.30
2023-08-15T11:21:50.557Z,11.10
2023-08-15T11:24:17.184Z,9.10
2023-08-15T11:26:44.855Z,6.60
2023-08-15T11:29:13.091Z,9.40
2023-08-15T11:31:40.179Z,7.40
2023-08-15T11:34:07.979Z,9.00
2023-08-15T11:36:36.982Z,8.10
2023-08-15T11:39:04.085Z,7.60
2023-08-15T11:41:34.111Z,8.40
2023-08-15T11:44:04.581Z,10.40
2023-08-15T11:47:39.934Z,7.70
2023-08-15T11:50:37.914Z,10.50
2023-08-15T11:53:22.977Z,6.50
2023-08-15T11:55:51.831Z,7.50
2023-08-15T11:58:33.375Z,9.00
2023-08-15T12:01:06.645Z,9.00
2023-08-15T12:03:37.054Z,7.90
2023-08-15T12:06:10.077Z,6.70
2023-08-15T12:08:39.872Z,8.00
2023-08-15T12:11:11.035Z,7.40
2023-08-15T12:13:41.517Z,7.50
2023-08-15T12:16:11.484Z,9.20
2023-08-15T12:18:39.886Z,10.20
2023-08-15T12:21:09.750Z,7.50
2023-08-15T12:23:37.690Z,7.60
2023-08-15T12:26:04.591Z,8.10
2023-08-15T12:28:31.293Z,9.70
2023-08-15T12:32:39.722Z,7.00
2023-08-15T12:35:06.855Z,7.60
2023-08-15T12:37:33.470Z,6.50
2023-08-15T12:40:00.514Z,8.40
2023-08-15T12:42:28.273Z,7.70
2023-08-15T12:44:55.204Z,9.60
2023-08-15T12:48:31.981Z,9.70
2023-08-15T12:51:00.103Z,7.50
2023-08-15T12:53:26.615Z,6.20
2023-08-15T12:55:53.129Z,9.70
2023-08-15T12:58:19.588Z,6.70
2023-08-15T13:00:49.244Z,7.90
2023-08-15T13:03:15.861Z,7.80
2023-08-15T13:05:42.530Z,7.70
2023-08-15T13:08:09.057Z,7.00
2023-08-15T13:10:35.661Z,8.30
2023-08-15T13:13:02.429Z,7.20
2023-08-15T13:15:28.962Z,8.40
2023-08-15T13:17:55.870Z,8.10
2023-08-15T13:20:22.524Z,8.50
2023-08-15T13:22:49.090Z,7.20
2023-08-15T13:25:15.710Z,8.60
2023-08-15T13:27:42.140Z,8.40
2023-08-15T13:30:08.836Z,7.30
2023-08-15T13:32:35.419Z,6.90
2023-08-15T13:35:02.017Z,8.40
2023-08-15T13:37:28.663Z,6.80
2023-08-15T13:40:00.259Z,8.50
2023-08-15T13:42:37.564Z,7.80
2023-08-15T13:45:11.478Z,8.00
2023-08-15T13:47:38.262Z,9.70
2023-08-15T13:50:06.039Z,7.40
2023-08-15T13:52:32.808Z,7.40
2023-08-15T13:54:59.227Z,8.10
2023-08-15T13:57:25.707Z,8.40
2023-08-15T13:59:52.995Z,9.80
2023-08-15T14:02:19.522Z,7.30
2023-08-15T14:04:45.968Z,7.70
2023-08-15T14:07:12.508Z,12.60
2023-08-15T14:09:39.015Z,9.00
2023-08-15T14:12:05.947Z,7.00
2023-08-15T14:14:32.486Z,12.30
2023-08-15T14:16:59.051Z,7.70
2023-08-15T14:19:25.549Z,8.30
2023-08-15T14:21:52.075Z,8.20
2023-08-15T14:24:18.702Z,6.80
2023-08-15T14:26:45.199Z,8.30
2023-08-15T14:29:12.941Z,8.80
2023-08-15T14:31:39.616Z,7.50
2023-08-15T14:34:06.089Z,8.90
2023-08-15T14:36:32.636Z,7.50
2023-08-15T14:38:59.100Z,8.20
2023-08-15T14:41:25.596Z,6.90
2023-08-15T14:43:52.452Z,8.80
2023-08-15T14:46:19.050Z,7.60
2023-08-15T14:48:45.585Z,7.80
2023-08-15T14:51:12.149Z,8.90
2023-08-15T14:53:38.697Z,7.50
2023-08-15T14:56:06.917Z,7.40
2023-08-15T14:58:33.455Z,8.50
2023-08-15T15:01:00.028Z,7.10
2023-08-15T15:03:26.931Z,6.60
2023-08-15T15:05:53.728Z,7.20
2023-08-15T15:08:20.215Z,8.50
2023-08-15T15:10:46.851Z,10.00
2023-08-15T15:13:13.623Z,7.60
2023-08-15T15:15:53.829Z,8.00
2023-08-15T15:18:22.896Z,7.60
2023-08-15T15:20:49.814Z,8.30
2023-08-15T15:23:16.630Z,7.90
2023-08-15T15:25:47.886Z,9.60
2023-08-15T15:28:15.133Z,7.40
2023-08-15T15:30:41.712Z,8.20
2023-08-15T15:33:08.381Z,8.30
2023-08-15T15:35:35.078Z,8.90
2023-08-15T15:38:01.569Z,9.70
2023-08-15T15:40:28.130Z,7.40
2023-08-15T15:42:54.663Z,9.20
2023-08-15T15:45:21.471Z,11.30
2023-08-15T15:47:48.201Z,7.50
2023-08-15T15:50:20.114Z,14.50
2023-08-15T15:52:47.939Z,9.90
2023-08-15T15:55:20.235Z,9.80
2023-08-15T15:57:46.850Z,7.60
2023-08-15T16:00:16.615Z,8.90
2023-08-15T16:02:44.132Z,10.90
2023-08-15T16:05:12.505Z,10.20
2023-08-15T16:07:39.365Z,8.90
2023-08-15T16:10:07.245Z,9.20
2023-08-15T16:12:34.108Z,9.20
2023-08-15T16:15:01.104Z,8.20
2023-08-15T16:17:27.785Z,11.30
2023-08-15T16:19:54.929Z,8.20
2023-08-15T16:22:22.325Z,11.40
2023-08-15T16:24:49.077Z,8.40
2023-08-15T16:27:15.522Z,7.70
2023-08-15T16:29:42.026Z,9.60
2023-08-15T16:32:08.623Z,8.50
2023-08-15T16:34:35.080Z,9.30
2023-08-15T16:37:01.539Z,11.00
2023-08-15T16:39:28.053Z,9.40
2023-08-15T16:41:54.508Z,10.10
2023-08-15T16:44:21.096Z,9.50
2023-08-15T16:46:48.055Z,8.60
2023-08-15T16:49:14.617Z,10.70
2023-08-15T16:51:41.488Z,10.20
2023-08-15T16:54:08.045Z,10.00
2023-08-15T16:56:34.868Z,9.10
2023-08-15T16:59:01.367Z,9.10
2023-08-15T17:01:27.982Z,9.90
2023-08-15T17:03:54.748Z,9.40
2023-08-15T17:06:21.359Z,10.90
2023-08-15T17:08:48.013Z,8.20
2023-08-15T17:11:14.618Z,7.60
2023-08-15T17:13:41.210Z,9.30
2023-08-15T17:16:07.788Z,8.70
2023-08-15T17:18:34.388Z,7.50
2023-08-15T17:21:01.116Z,7.90
2023-08-15T17:23:27.783Z,7.30
2023-08-15T17:25:54.278Z,7.40
2023-08-15T17:28:20.812Z,7.10
2023-08-15T17:30:47.413Z,9.70
2023-08-15T17:33:13.889Z,7.30
2023-08-15T17:35:40.364Z,8.30
2023-08-15T17:38:06.894Z,7.30
2023-08-15T17:40:35.175Z,8.50
2023-08-15T17:43:01.891Z,8.50
2023-08-15T17:45:28.642Z,8.00
2023-08-15T17:47:55.182Z,9.30
2023-08-15T17:50:21.769Z,8.80
2023-08-15T17:52:48.595Z,7.80
2023-08-15T17:55:15.463Z,7.90
2023-08-15T17:57:42.018Z,8.60
2023-08-15T18:00:09.980Z,7.80
2023-08-15T18:02:38.522Z,8.00
2023-08-15T18:05:06.088Z,8.30
2023-08-15T18:07:32.945Z,9.60
2023-08-15T18:10:00.508Z,8.10
2023-08-15T18:12:29.452Z,9.30
2023-08-15T18:14:56.528Z,9.10
2023-08-15T18:17:24.222Z,12.10
2023-08-15T18:19:51.004Z,9.20
2023-08-15T18:22:18.551Z,8.90
2023-08-15T18:24:47.082Z,7.60
2023-08-15T18:27:13.585Z,8.60
2023-08-15T18:29:40.443Z,9.50
2023-08-15T18:32:07.110Z,10.20
2023-08-15T18:34:33.790Z,10.40
2023-08-15T18:37:00.311Z,8.00
2023-08-15T18:39:26.750Z,9.00
2023-08-15T18:41:53.414Z,8.90
2023-08-15T18:44:19.845Z,9.10
2023-08-15T18:46:47.976Z,10.10
2023-08-15T18:49:14.796Z,9.90
2023-08-15T18:51:41.345Z,9.80
2023-08-15T18:54:08.514Z,9.70
2023-08-15T18:56:35.193Z,8.10
2023-08-15T18:59:01.693Z,8.10
2023-08-15T19:01:28.401Z,10.40
2023-08-15T19:03:55.219Z,9.20
2023-08-15T19:06:21.863Z,11.10
2023-08-15T19:08:48.530Z,8.50
2023-08-15T19:11:15.183Z,9.40
2023-08-15T19:13:41.941Z,9.90
2023-08-15T19:16:08.449Z,9.60
2023-08-15T19:18:35.412Z,10.10
2023-08-15T19:21:02.211Z,9.50
2023-08-15T19:23:28.717Z,10.90
2023-08-15T19:25:55.278Z,7.70
2023-08-15T19:28:22.603Z,8.90
2023-08-15T19:30:49.091Z,8.10
2023-08-15T19:33:15.746Z,8.90
2023-08-15T19:35:42.437Z,11.50
2023-08-15T19:38:09.112Z,9.20
2023-08-15T19:40:35.644Z,9.20
2023-08-15T19:43:02.654Z,9.70
2023-08-15T19:45:29.232Z,9.80
2023-08-15T19:47:57.372Z,9.60
2023-08-15T19:50:23.938Z,8.20
2023-08-15T19:52:50.409Z,9.90
2023-08-15T19:55:16.859Z,9.70
2023-08-15T19:57:43.383Z,10.10
2023-08-15T20:00:11.073Z,9.70
2023-08-15T20:02:40.003Z,11.00
2023-08-15T20:05:08.733Z,10.40
2023-08-15T20:07:36.481Z,10.90
2023-08-15T20:10:15.951Z,9.60
2023-08-15T20:12:42.548Z,10.40
2023-08-15T20:15:09.902Z,10.00
2023-08-15T20:17:36.490Z,10.20
2023-08-15T20:20:03.396Z,8.90
2023-08-15T20:22:32.003Z,9.90
2023-08-15T20:24:58.498Z,11.80
2023-08-15T20:27:25.111Z,10.00
2023-08-15T20:29:56.832Z,11.70
2023-08-15T20:32:29.364Z,10.40
2023-08-15T20:34:55.993Z,10.10
2023-08-15T20:37:22.710Z,10.50
2023-08-15T20:39:49.416Z,11.40
2023-08-15T20:42:16.235Z,10.40
2023-08-15T20:44:42.985Z,11.10
2023-08-15T20:47:10.508Z,10.00
2023-08-15T20:49:41.812Z,10.60
2023-08-15T20:52:10.268Z,12.80
2023-08-15T20:54:36.809Z,8.40
2023-08-15T20:57:04.531Z,9.60
2023-08-15T20:59:31.294Z,10.70
2023-08-15T21:01:57.993Z,11.70
2023-08-15T21:04:24.811Z,10.40
2023-08-15T21:06:52.864Z,10.70
2023-08-15T21:09:20.272Z,11.50
2023-08-15T21:11:47.477Z,11.20
2023-08-15T21:14:15.090Z,10.80
2023-08-15T21:16:41.614Z,12.70
2023-08-15T21:19:08.388Z,10.60
2023-08-15T21:21:35.181Z,10.50
2023-08-15T21:24:01.677Z,12.30
2023-08-15T21:26:28.340Z,12.50
2023-08-15T21:28:54.826Z,11.70
2023-08-15T21:31:23.607Z,12.70
2023-08-15T21:33:50.046Z,11.60
2023-08-15T21:36:16.553Z,12.10
2023-08-15T21:38:43.006Z,10.90
2023-08-15T21:41:09.453Z,11.60
2023-08-15T21:43:36.636Z,12.40
2023-08-15T21:46:03.154Z,11.60
2023-08-15T21:48:29.742Z,12.30
2023-08-15T21:50:56.234Z,11.90
2023-08-15T21:53:22.898Z,10.70
2023-08-15T21:55:49.382Z,11.80
2023-08-15T21:58:16.304Z,12.90
2023-08-15T22:00:43.304Z,11.00
2023-08-15T22:03:10.817Z,11.30
2023-08-15T22:05:37.419Z,10.90
2023-08-15T22:08:04.550Z,11.90
2023-08-15T22:10:31.355Z,10.60
2023-08-15T22:12:57.896Z,10.50
2023-08-15T22:15:27.871Z,10.80
2023-08-15T22:18:04.392Z,10.80
2023-08-15T22:20:41.248Z,11.30
2023-08-15T22:23:08.066Z,11.40
2023-08-15T22:25:35.146Z,10.90
2023-08-15T22:28:01.919Z,11.70
2023-08-15T22:30:29.204Z,10.50
2023-08-15T22:32:55.849Z,11.80
2023-08-15T22:35:39.489Z,12.10
2023-08-15T22:38:07.182Z,11.60
2023-08-15T22:40:34.477Z,9.80
2023-08-15T22:43:00.980Z,11.10
2023-08-15T22:45:27.715Z,10.30
2023-08-15T22:47:54.454Z,11.40
2023-08-15T22:50:23.782Z,14.60
2023-08-15T22:52:50.580Z,11.50
2023-08-15T22:55:17.579Z,12.10
2023-08-15T22:57:44.341Z,11.10
2023-08-15T23:00:11.905Z,13.50
2023-08-15T23:02:38.825Z,13.40
2023-08-15T23:05:06.096Z,13.00
2023-08-15T23:07:32.697Z,13.60
2023-08-15T23:09:59.643Z,12.30
2023-08-15T23:12:26.321Z,13.30
2023-08-15T23:14:53.037Z,12.40
2023-08-15T23:17:19.928Z,12.10
2023-08-15T23:19:46.412Z,12.30
2023-08-15T23:22:12.973Z,14.20
2023-08-15T23:24:39.677Z,13.10
2023-08-15T23:27:06.504Z,10.70
2023-08-15T23:29:36.767Z,10.10
2023-08-15T23:32:04.502Z,11.10
2023-08-15T23:34:32.097Z,11.40
2023-08-15T23:36:58.566Z,10.90
2023-08-15T23:39:25.751Z,11.20
2023-08-15T23:41:52.520Z,11.10
2023-08-15T23:44:22.308Z,10.80
2023-08-15T23:46:49.348Z,11.00
2023-08-15T23:49:16.041Z,10.60
2023-08-15T23:51:43.660Z,11.00
2023-08-15T23:54:10.440Z,11.10
2023-08-15T23:56:37.992Z,10.30
2023-08-15T23:59:04.845Z,11.00
